PTAJQ SBJV-SSPG
Flight info
| Callsign | PTAJQ |
|---|---|
| Flight time | 0h 20m |
| Altitude | 2500 |
| Route | DCT 2612S04830W REA 2553S04833W/N0180A035 DCT |
| Aircraft | BE58/L-SD/S |
Departure
| Time | 2026-04-15 18:42 |
|---|---|
| Airport | Lauro Carneiro de Loyola Airport (SBJV) |
Arrival
| Time | 2026-04-15 19:03 |
|---|---|
| Airport | Paranaguá Airport (SSPG) |
| Time | Latitude | Longitude | Altitude | Speed | Heading |
|---|---|---|---|---|---|
| 2026-04-15 18:30 | -26.22404 | -48.80049 | 20 ft | 0 kts | 38° |
| 2026-04-15 18:37 | -26.22401 | -48.80046 | 20 ft | 1 kts | 38° |
| 2026-04-15 18:37 | -26.22379 | -48.80031 | 20 ft | 5 kts | 9° |
| 2026-04-15 18:37 | -26.22346 | -48.80033 | 20 ft | 5 kts | 24° |
| 2026-04-15 18:38 | -26.22307 | -48.80000 | 20 ft | 8 kts | 38° |
| 2026-04-15 18:38 | -26.22251 | -48.80010 | 20 ft | 10 kts | 309° |
| 2026-04-15 18:38 | -26.22202 | -48.80076 | 20 ft | 11 kts | 310° |
| 2026-04-15 18:38 | -26.22147 | -48.80150 | 21 ft | 12 kts | 309° |
| 2026-04-15 18:39 | -26.22088 | -48.80231 | 21 ft | 13 kts | 308° |
| 2026-04-15 18:39 | -26.22041 | -48.80281 | 21 ft | 0 kts | 326° |
| 2026-04-15 18:39 | -26.22047 | -48.80289 | 21 ft | 2 kts | 181° |
| 2026-04-15 18:39 | -26.22051 | -48.80285 | 21 ft | 0 kts | 127° |
| 2026-04-15 18:41 | -26.22053 | -48.80282 | 21 ft | 4 kts | 128° |
| 2026-04-15 18:41 | -26.22243 | -48.80017 | 20 ft | 85 kts | 128° |
| 2026-04-15 18:42 | -26.22705 | -48.79384 | 52 ft | 118 kts | 127° |
| 2026-04-15 18:42 | -26.23257 | -48.78611 | 271 ft | 133 kts | 126° |
| 2026-04-15 18:42 | -26.23816 | -48.77794 | 594 ft | 134 kts | 124° |
| 2026-04-15 18:42 | -26.24354 | -48.76954 | 923 ft | 132 kts | 122° |
| 2026-04-15 18:43 | -26.24810 | -48.76069 | 1208 ft | 133 kts | 110° |
| 2026-04-15 18:43 | -26.25082 | -48.75081 | 1463 ft | 134 kts | 101° |
| 2026-04-15 18:43 | -26.25261 | -48.74009 | 1525 ft | 147 kts | 97° |
| 2026-04-15 18:43 | -26.25366 | -48.72832 | 1617 ft | 161 kts | 92° |
| 2026-04-15 18:44 | -26.25375 | -48.71536 | 1629 ft | 176 kts | 85° |
| 2026-04-15 18:44 | -26.25239 | -48.70158 | 1746 ft | 179 kts | 83° |
| 2026-04-15 18:44 | -26.25139 | -48.68827 | 2125 ft | 168 kts | 84° |
| 2026-04-15 18:44 | -26.24933 | -48.67565 | 2405 ft | 167 kts | 73° |
| 2026-04-15 18:45 | -26.24630 | -48.66265 | 2453 ft | 178 kts | 76° |
| 2026-04-15 18:45 | -26.24297 | -48.64904 | 2450 ft | 187 kts | 69° |
| 2026-04-15 18:45 | -26.23772 | -48.63577 | 2452 ft | 191 kts | 66° |
| 2026-04-15 18:45 | -26.23274 | -48.62182 | 2449 ft | 193 kts | 68° |
| 2026-04-15 18:46 | -26.22749 | -48.60813 | 2446 ft | 194 kts | 66° |
| 2026-04-15 18:46 | -26.22230 | -48.59428 | 2450 ft | 195 kts | 68° |
| 2026-04-15 18:46 | -26.21698 | -48.58020 | 2449 ft | 196 kts | 66° |
| 2026-04-15 18:46 | -26.21171 | -48.56636 | 2446 ft | 196 kts | 67° |
| 2026-04-15 18:47 | -26.20632 | -48.55228 | 2445 ft | 196 kts | 67° |
| 2026-04-15 18:47 | -26.20095 | -48.53832 | 2445 ft | 197 kts | 67° |
| 2026-04-15 18:47 | -26.19566 | -48.52430 | 2448 ft | 197 kts | 67° |
| 2026-04-15 18:47 | -26.19027 | -48.51019 | 2446 ft | 197 kts | 67° |
| 2026-04-15 18:48 | -26.18498 | -48.49617 | 2444 ft | 197 kts | 67° |
| 2026-04-15 18:48 | -26.17967 | -48.48210 | 2444 ft | 197 kts | 67° |
| 2026-04-15 18:48 | -26.17390 | -48.46835 | 2433 ft | 197 kts | 57° |
| 2026-04-15 18:48 | -26.16248 | -48.46069 | 2421 ft | 200 kts | 7° |
| 2026-04-15 18:49 | -26.14891 | -48.46471 | 2450 ft | 202 kts | 338° |
| 2026-04-15 18:49 | -26.13584 | -48.47055 | 2450 ft | 202 kts | 342° |
| 2026-04-15 18:49 | -26.12280 | -48.47626 | 2447 ft | 203 kts | 339° |
| 2026-04-15 18:49 | -26.10976 | -48.48244 | 2445 ft | 203 kts | 340° |
| 2026-04-15 18:50 | -26.09660 | -48.48835 | 2446 ft | 203 kts | 340° |
| 2026-04-15 18:50 | -26.08350 | -48.49454 | 2448 ft | 204 kts | 339° |
| 2026-04-15 18:50 | -26.07042 | -48.50063 | 2440 ft | 204 kts | 340° |
| 2026-04-15 18:50 | -26.05717 | -48.50681 | 2439 ft | 204 kts | 340° |
| 2026-04-15 18:51 | -26.04412 | -48.51289 | 2445 ft | 204 kts | 339° |
| 2026-04-15 18:51 | -26.03099 | -48.51906 | 2451 ft | 204 kts | 340° |
| 2026-04-15 18:51 | -26.01790 | -48.52516 | 2452 ft | 204 kts | 339° |
| 2026-04-15 18:51 | -26.00474 | -48.53136 | 2449 ft | 204 kts | 339° |
| 2026-04-15 18:52 | -25.99154 | -48.53748 | 2520 ft | 200 kts | 340° |
| 2026-04-15 18:52 | -25.97903 | -48.54339 | 2789 ft | 190 kts | 339° |
| 2026-04-15 18:52 | -25.96695 | -48.54911 | 2926 ft | 190 kts | 340° |
| 2026-04-15 18:52 | -25.95464 | -48.55492 | 2953 ft | 195 kts | 339° |
| 2026-04-15 18:53 | -25.94195 | -48.56081 | 2953 ft | 199 kts | 340° |
| 2026-04-15 18:53 | -25.92900 | -48.56634 | 2940 ft | 200 kts | 348° |
| 2026-04-15 18:53 | -25.91538 | -48.56699 | 3150 ft | 188 kts | 3° |
| 2026-04-15 18:53 | -25.90252 | -48.56835 | 3398 ft | 183 kts | 355° |
| 2026-04-15 18:54 | -25.88971 | -48.56927 | 3448 ft | 188 kts | 360° |
| 2026-04-15 18:54 | -25.87634 | -48.57032 | 3453 ft | 193 kts | 359° |
| 2026-04-15 18:54 | -25.86273 | -48.56924 | 3455 ft | 195 kts | 11° |
| 2026-04-15 18:54 | -25.84899 | -48.56790 | 3448 ft | 198 kts | 4° |
| 2026-04-15 18:55 | -25.83544 | -48.56633 | 3452 ft | 198 kts | 10° |
| 2026-04-15 18:55 | -25.82150 | -48.56473 | 3447 ft | 199 kts | 6° |
| 2026-04-15 18:55 | -25.80772 | -48.56312 | 3450 ft | 199 kts | 10° |
| 2026-04-15 18:55 | -25.79395 | -48.56147 | 3442 ft | 199 kts | 6° |
| 2026-04-15 18:56 | -25.78012 | -48.55989 | 3428 ft | 200 kts | 9° |
| 2026-04-15 18:56 | -25.76625 | -48.55824 | 3208 ft | 195 kts | 7° |
| 2026-04-15 18:56 | -25.75298 | -48.55672 | 3044 ft | 189 kts | 9° |
| 2026-04-15 18:56 | -25.74009 | -48.55518 | 2896 ft | 185 kts | 7° |
| 2026-04-15 18:57 | -25.72724 | -48.55370 | 2742 ft | 183 kts | 9° |
| 2026-04-15 18:57 | -25.71451 | -48.55220 | 2584 ft | 183 kts | 8° |
| 2026-04-15 18:57 | -25.70187 | -48.55078 | 2431 ft | 182 kts | 8° |
| 2026-04-15 18:57 | -25.68935 | -48.54925 | 2282 ft | 181 kts | 8° |
| 2026-04-15 18:58 | -25.67676 | -48.54782 | 2128 ft | 181 kts | 9° |
| 2026-04-15 18:58 | -25.66419 | -48.54633 | 1996 ft | 177 kts | 8° |
| 2026-04-15 18:58 | -25.65219 | -48.54494 | 1861 ft | 172 kts | 9° |
| 2026-04-15 18:58 | -25.64041 | -48.54353 | 1718 ft | 169 kts | 8° |
| 2026-04-15 18:59 | -25.62876 | -48.54219 | 1580 ft | 167 kts | 8° |
| 2026-04-15 18:59 | -25.61721 | -48.54088 | 1444 ft | 166 kts | 8° |
| 2026-04-15 18:59 | -25.60576 | -48.53954 | 1302 ft | 165 kts | 8° |
| 2026-04-15 18:59 | -25.59429 | -48.53815 | 1151 ft | 162 kts | 8° |
| 2026-04-15 19:00 | -25.58318 | -48.53686 | 995 ft | 158 kts | 7° |
| 2026-04-15 19:00 | -25.57250 | -48.53559 | 982 ft | 147 kts | 9° |
| 2026-04-15 19:00 | -25.56308 | -48.53252 | 951 ft | 137 kts | 38° |
| 2026-04-15 19:00 | -25.55685 | -48.52497 | 963 ft | 128 kts | 53° |
| 2026-04-15 19:01 | -25.55223 | -48.51703 | 959 ft | 120 kts | 60° |
| 2026-04-15 19:01 | -25.54805 | -48.50957 | 867 ft | 106 kts | 58° |
| 2026-04-15 19:01 | -25.54420 | -48.50363 | 912 ft | 94 kts | 49° |
| 2026-04-15 19:01 | -25.53804 | -48.50114 | 786 ft | 104 kts | 356° |
| 2026-04-15 19:02 | -25.53206 | -48.50554 | 720 ft | 104 kts | 307° |
| 2026-04-15 19:02 | -25.52923 | -48.51286 | 534 ft | 105 kts | 276° |
| 2026-04-15 19:02 | -25.53161 | -48.52038 | 277 ft | 104 kts | 233° |
| 2026-04-15 19:02 | -25.53611 | -48.52618 | 63 ft | 95 kts | 228° |
| 2026-04-15 19:03 | -25.53968 | -48.53061 | 43 ft | 61 kts | 228° |
| 2026-04-15 19:03 | -25.54212 | -48.53360 | 41 ft | 44 kts | 229° |
| 2026-04-15 19:03 | -25.54356 | -48.53550 | 40 ft | 8 kts | 235° |
| 2026-04-15 19:03 | -25.54376 | -48.53557 | 40 ft | 8 kts | 44° |
| 2026-04-15 19:04 | -25.54324 | -48.53500 | 40 ft | 13 kts | 46° |
| 2026-04-15 19:04 | -25.54248 | -48.53410 | 40 ft | 18 kts | 49° |
| 2026-04-15 19:04 | -25.54169 | -48.53310 | 41 ft | 16 kts | 49° |
| 2026-04-15 19:04 | -25.54100 | -48.53227 | 41 ft | 13 kts | 48° |
| 2026-04-15 19:05 | -25.54032 | -48.53141 | 42 ft | 16 kts | 48° |
| 2026-04-15 19:05 | -25.53946 | -48.53041 | 43 ft | 18 kts | 50° |
| 2026-04-15 19:05 | -25.53878 | -48.52978 | 43 ft | 9 kts | 334° |
| 2026-04-15 19:05 | -25.53823 | -48.53011 | 43 ft | 9 kts | 11° |
| 2026-04-15 19:06 | -25.53803 | -48.53028 | 44 ft | 3 kts | 172° |
| 2026-04-15 19:06 | -25.53807 | -48.53025 | 44 ft | 0 kts | 135° |
| 2026-04-15 19:06 | -25.53808 | -48.53024 | 43 ft | 0 kts | 135° |